.
WxDataArchive / Data Records for 2016-04-22
2016-04-21 April 2016 2016-04-23

Data Records for Friday, 22 April 2016

Time	Temp	Chill	HIndex	Humid	Dewpt	 Wind 	HiWind	WindDir	Rain 	Barom
-----	----	-----	------	-----	-----	------	------	-------	-----	-----
00:00	54.1	54.1	54.1	95	52.7	0	0	---	0.02	29.837 
00:05	54.1	54.1	54.1	95	52.7	0	0	---	0.01	29.837 
00:10	54.2	54.2	54.2	95	52.8	0	0	---	0.00	29.837 
00:15	54.7	54.7	54.7	95	53.3	0	2	180	0.02	29.839 
00:20	55.0	55.0	55.0	95	53.6	0	1	180	0.00	29.839 
00:25	55.3	55.3	55.3	95	53.9	0	1	180	0.00	29.839 
00:30	55.3	55.3	55.3	95	53.9	0	2	180	0.00	29.837 
00:35	55.1	55.1	55.1	95	53.7	1	2	180	0.00	29.837 
00:40	55.0	55.0	55.0	95	53.6	0	3	180	0.00	29.837 
00:45	54.8	54.8	54.8	95	53.4	0	3	292	0.01	29.830 
00:50	54.8	54.8	54.8	95	53.4	0	1	292	0.00	29.830 
00:55	54.8	54.8	54.8	95	53.4	0	0	---	0.00	29.830 
01:00	54.8	54.8	54.8	95	53.4	0	0	---	0.00	29.826 
01:05	54.7	54.7	54.7	95	53.3	0	1	292	0.01	29.826 
01:10	54.7	54.7	54.7	95	53.3	0	0	---	0.00	29.826 
01:15	54.7	54.7	54.7	95	53.3	0	0	---	0.00	29.818 
01:20	54.5	54.5	54.5	95	53.1	0	0	---	0.00	29.818 
01:25	54.5	54.5	54.5	95	53.1	0	0	---	0.00	29.818 
01:30	54.5	54.5	54.5	95	53.1	0	0	---	0.00	29.809 
01:35	54.4	54.4	54.4	95	53.0	0	0	---	0.00	29.809 
01:40	54.4	54.4	54.4	95	53.0	0	0	---	0.00	29.809 
01:45	54.2	54.2	54.2	95	52.8	0	0	---	0.00	29.803 
01:50	54.2	54.2	54.2	95	52.8	0	0	---	0.00	29.803 
01:55	54.2	54.2	54.2	95	52.8	0	0	---	0.00	29.803 
02:00	54.1	54.1	54.1	95	52.7	0	0	---	0.00	29.803 
02:05	54.1	54.1	54.1	95	52.7	0	0	---	0.00	29.803 
02:10	54.1	54.1	54.1	95	52.7	0	0	---	0.00	29.803 
02:15	54.1	54.1	54.1	95	52.7	0	0	---	0.00	29.802 
02:20	53.9	53.9	53.9	96	52.8	0	0	---	0.00	29.802 
02:25	54.1	54.1	54.1	95	52.7	0	0	---	0.00	29.802 
02:30	54.1	54.1	54.1	96	53.0	0	1	292	0.00	29.801 
02:35	54.1	54.1	54.1	96	53.0	0	0	---	0.00	29.801 
02:40	54.1	54.1	54.1	96	53.0	0	1	292	0.00	29.801 
02:45	54.1	54.1	54.1	96	53.0	0	0	---	0.00	29.796 
02:50	54.1	54.1	54.1	96	53.0	0	0	---	0.00	29.796 
02:55	53.9	53.9	53.9	96	52.8	0	0	---	0.00	29.796 
03:00	53.9	53.9	53.9	96	52.8	0	0	---	0.00	29.789 
03:05	53.8	53.8	53.8	96	52.7	0	0	---	0.00	29.789 
03:10	53.8	53.8	53.8	96	52.7	0	0	---	0.00	29.789 
03:15	53.8	53.8	53.8	96	52.7	0	0	---	0.00	29.787 
03:20	53.8	53.8	53.8	96	52.7	0	0	---	0.00	29.787 
03:25	53.8	53.8	53.8	96	52.7	0	0	---	0.00	29.787 
03:30	53.8	53.8	53.8	96	52.7	0	0	---	0.00	29.782 
03:35	53.8	53.8	53.8	96	52.7	0	0	---	0.00	29.782 
03:40	53.8	53.8	53.8	96	52.7	0	0	---	0.00	29.782 
03:45	53.8	53.8	53.8	96	52.7	0	0	---	0.00	29.781 
03:50	53.8	53.8	53.8	96	52.7	0	0	---	0.00	29.781 
03:55	53.8	53.8	53.8	96	52.7	0	0	---	0.00	29.781 
04:00	53.8	53.8	53.8	96	52.7	0	0	---	0.00	29.779 
04:05	53.8	53.8	53.8	96	52.7	0	0	---	0.00	29.779 
04:10	53.8	53.8	53.8	96	52.7	0	0	---	0.00	29.779 
04:15	53.8	53.8	53.8	96	52.7	0	0	---	0.00	29.783 
04:20	53.8	53.8	53.8	96	52.7	0	0	---	0.00	29.783 
04:25	53.8	53.8	53.8	96	52.7	0	0	---	0.00	29.783 
04:30	53.8	53.8	53.8	96	52.7	0	0	---	0.00	29.780 
04:35	53.8	53.8	53.8	96	52.7	0	0	---	0.00	29.780 
04:40	53.8	53.8	53.8	96	52.7	0	0	---	0.00	29.780 
04:45	53.6	53.6	53.6	96	52.5	0	0	---	0.00	29.772 
04:50	53.6	53.6	53.6	96	52.5	0	2	292	0.00	29.772 
04:55	53.8	53.8	53.8	96	52.7	0	1	292	0.00	29.772 
05:00	53.8	53.8	53.8	96	52.7	0	0	---	0.00	29.794 
05:05	53.8	53.8	53.8	96	52.7	0	0	---	0.00	29.794 
05:10	53.8	53.8	53.8	96	52.7	0	1	292	0.00	29.794 
05:15	53.8	53.8	53.8	96	52.7	0	0	---	0.00	29.803 
05:20	53.8	53.8	53.8	96	52.7	0	0	---	0.00	29.803 
05:25	53.6	53.6	53.6	96	52.5	0	0	---	0.00	29.803 
05:30	53.6	53.6	53.6	96	52.5	0	0	---	0.00	29.800 
05:35	53.5	53.5	53.5	96	52.4	0	0	---	0.00	29.800 
05:40	53.5	53.5	53.5	96	52.4	0	0	---	0.00	29.800 
05:45	53.5	53.5	53.5	96	52.4	0	0	---	0.00	29.799 
05:50	53.5	53.5	53.5	96	52.4	0	0	---	0.00	29.799 
05:55	53.3	53.3	53.3	96	52.2	0	0	---	0.00	29.799 
06:00	53.3	53.3	53.3	96	52.2	0	0	---	0.00	29.799 
06:05	53.2	53.2	53.2	96	52.1	0	0	---	0.00	29.799 
06:10	53.2	53.2	53.2	96	52.1	0	0	---	0.00	29.799 
06:15	53.1	53.1	53.1	96	52.0	0	0	---	0.00	29.803 
06:20	53.1	53.1	53.1	96	52.0	0	0	---	0.00	29.803 
06:25	52.9	52.9	52.9	96	51.8	0	0	---	0.00	29.803 
06:30	52.9	52.9	52.9	96	51.8	0	0	---	0.00	29.805 
06:35	52.9	52.9	52.9	96	51.8	0	0	---	0.00	29.805 
06:40	53.1	53.1	53.1	96	52.0	0	0	---	0.00	29.805 
06:45	53.1	53.1	53.1	96	52.0	0	0	---	0.00	29.815 
06:50	52.9	52.9	52.9	96	51.8	0	0	---	0.00	29.815 
06:55	52.9	52.9	52.9	96	51.8	0	0	---	0.00	29.815 
07:00	52.8	52.8	52.8	96	51.7	0	0	---	0.00	29.816 
07:05	52.8	52.8	52.8	96	51.7	0	0	---	0.00	29.816 
07:10	52.6	52.6	52.6	96	51.5	0	0	---	0.00	29.816 
07:15	52.6	52.6	52.6	96	51.5	0	0	---	0.00	29.821 
07:20	52.6	52.6	52.6	96	51.5	0	0	---	0.00	29.821 
07:25	52.6	52.6	52.6	96	51.5	0	0	---	0.00	29.821 
07:30	52.6	52.6	52.6	96	51.5	0	0	---	0.00	29.824 
07:35	52.6	52.6	52.6	96	51.5	0	0	---	0.01	29.824 
07:40	52.6	52.6	52.6	96	51.5	0	0	---	0.00	29.824 
07:45	52.6	52.6	52.6	96	51.5	0	0	---	0.00	29.832 
07:50	52.8	52.8	52.8	96	51.7	0	0	---	0.00	29.832 
07:55	52.8	52.8	52.8	96	51.7	0	0	---	0.00	29.832 
08:00	52.9	52.9	52.9	96	51.8	0	0	---	0.00	29.838 
08:05	53.1	53.1	53.1	96	52.0	0	0	---	0.00	29.838 
08:10	53.2	53.2	53.2	96	52.1	0	0	---	0.00	29.838 
08:15	53.3	53.3	53.3	96	52.2	0	0	---	0.00	29.851 
08:20	53.3	53.3	53.3	96	52.2	0	0	---	0.00	29.851 
08:25	53.5	53.5	53.5	96	52.4	0	0	---	0.00	29.851 
08:30	53.6	53.6	53.6	97	52.8	0	0	---	0.00	29.853 
08:35	53.8	53.8	53.8	97	53.0	0	0	---	0.00	29.853 
08:40	53.9	53.9	53.9	96	52.8	0	0	---	0.00	29.853 
08:45	54.1	54.1	54.1	97	53.3	0	0	---	0.00	29.857 
08:50	54.1	54.1	54.1	96	53.0	0	0	---	0.01	29.857 
08:55	54.2	54.2	54.2	96	53.1	0	0	---	0.00	29.857 
09:00	54.2	54.2	54.2	96	53.1	0	0	---	0.00	29.864 
09:05	54.4	54.4	54.4	96	53.3	0	0	---	0.00	29.864 
09:10	54.4	54.4	54.4	96	53.3	0	0	---	0.01	29.864 
09:15	54.4	54.4	54.4	97	53.6	0	0	---	0.00	29.872 
09:20	54.4	54.4	54.4	96	53.3	0	0	---	0.00	29.872 
09:25	54.4	54.4	54.4	96	53.3	0	0	---	0.00	29.872 
09:30	54.4	54.4	54.4	96	53.3	0	0	---	0.00	29.876 
09:35	54.2	54.2	54.2	96	53.1	0	0	---	0.00	29.876 
09:40	54.2	54.2	54.2	96	53.1	0	0	---	0.00	29.876 
09:45	54.2	54.2	54.2	96	53.1	0	0	---	0.01	29.878 
09:50	54.2	54.2	54.2	97	53.4	0	1	292	0.00	29.878 
09:55	54.4	54.4	54.4	97	53.6	0	0	---	0.00	29.878 
10:00	54.5	54.5	54.5	97	53.7	0	1	292	0.00	29.881 
10:05	54.7	54.7	54.7	97	53.9	0	0	---	0.00	29.881 
10:10	54.8	54.8	54.8	97	54.0	0	1	292	0.00	29.881 
10:15	55.0	55.0	55.0	97	54.2	0	1	292	0.00	29.881 
10:20	55.0	55.0	55.0	97	54.2	1	4	292	0.00	29.881 
10:25	54.8	54.8	54.8	97	54.0	0	3	292	0.00	29.881 
10:30	54.7	54.7	54.7	97	53.9	1	3	292	0.00	29.887 
10:35	54.8	54.8	54.8	97	54.0	0	1	292	0.00	29.887 
10:40	54.8	54.8	54.8	97	54.0	0	2	292	0.01	29.887 
10:45	54.7	54.7	54.7	96	53.6	1	3	292	0.00	29.888 
10:50	54.7	54.7	54.7	96	53.6	0	1	292	0.00	29.888 
10:55	54.8	54.8	54.8	97	54.0	0	2	292	0.00	29.888 
11:00	54.8	54.8	54.8	97	54.0	0	2	292	0.01	29.889 
11:05	54.7	54.7	54.7	96	53.6	0	3	292	0.00	29.889 
11:10	54.8	54.8	54.8	97	54.0	0	2	292	0.00	29.889 
11:15	54.8	54.8	54.8	96	53.7	0	3	292	0.00	29.889 
11:20	54.8	54.8	54.8	96	53.7	0	3	292	0.00	29.889 
11:25	55.0	55.0	55.0	96	53.9	0	3	292	0.00	29.889 
11:30	55.1	55.1	55.1	96	54.0	1	3	292	0.00	29.894 
11:35	55.3	55.3	55.3	96	54.2	1	4	292	0.00	29.894 
11:40	55.3	55.3	55.3	96	54.2	1	5	292	0.00	29.894 
11:45	55.1	55.1	55.1	96	54.0	2	5	315	0.00	29.900 
11:50	55.1	55.1	55.1	96	54.0	1	4	315	0.00	29.900 
11:55	55.1	55.1	55.1	96	54.0	1	4	315	0.01	29.900 
12:00	55.6	55.6	55.6	96	54.5	0	2	292	0.00	29.900 
12:05	55.6	55.6	55.6	96	54.5	1	4	292	0.00	29.900 
12:10	55.4	55.4	55.4	96	54.3	1	4	292	0.00	29.900 
12:15	55.6	55.6	55.6	96	54.5	0	1	292	0.00	29.904 
12:20	55.6	55.6	55.6	96	54.5	0	2	292	0.00	29.904 
12:25	55.7	55.7	55.7	96	54.6	0	2	292	0.00	29.904 
12:30	55.7	55.7	55.7	96	54.6	0	2	292	0.00	29.907 
12:35	55.9	55.9	55.9	96	54.8	0	4	292	0.00	29.907 
12:40	55.9	55.9	55.9	96	54.8	0	2	292	0.00	29.907 
12:45	56.0	56.0	56.0	96	54.9	0	2	292	0.00	29.909 
12:50	56.0	56.0	56.0	96	54.9	0	2	292	0.00	29.909 
12:55	56.2	56.2	56.2	96	55.1	1	5	292	0.00	29.909 
13:00	56.2	56.2	56.2	96	55.1	1	5	292	0.00	29.909 
13:05	56.3	56.3	56.3	96	55.2	1	3	292	0.00	29.909 
13:10	56.3	56.3	56.3	96	55.2	1	3	292	0.00	29.909 
13:15	56.5	56.5	56.5	96	55.4	0	3	292	0.00	29.913 
13:20	56.6	56.6	56.6	96	55.5	1	5	292	0.00	29.913 
13:25	56.6	56.6	56.6	96	55.5	1	6	292	0.00	29.913 
13:30	56.6	56.6	56.6	96	55.5	0	3	270	0.00	29.915 
13:35	56.7	56.7	56.7	96	55.6	0	2	270	0.00	29.915 
13:40	56.7	56.7	56.7	96	55.6	1	3	270	0.01	29.915 
13:45	56.6	56.6	56.6	95	55.2	1	4	270	0.00	29.915 
13:50	56.7	56.7	56.7	95	55.3	0	3	270	0.00	29.915 
13:55	56.7	56.7	56.7	95	55.3	1	3	270	0.00	29.915 
14:00	56.9	56.9	56.9	95	55.5	0	2	270	0.00	29.917 
14:05	57.0	57.0	57.0	95	55.6	0	0	---	0.00	29.917 
14:10	56.7	56.7	56.7	95	55.3	1	5	270	0.00	29.917 
14:15	56.6	56.6	56.6	95	55.2	1	3	270	0.00	29.919 
14:20	56.6	56.6	56.6	95	55.2	1	3	270	0.00	29.919 
14:25	56.9	56.9	56.9	95	55.5	0	1	270	0.00	29.919 
14:30	57.0	57.0	57.0	95	55.6	0	1	270	0.00	29.924 
14:35	56.9	56.9	56.9	95	55.5	0	1	270	0.00	29.924 
14:40	57.0	57.0	57.0	95	55.6	0	1	270	0.00	29.924 
14:45	57.2	57.2	57.2	95	55.8	0	1	270	0.00	29.923 
14:50	57.3	57.3	57.3	95	55.9	0	2	270	0.00	29.923 
14:55	57.5	57.5	57.5	94	55.8	0	1	270	0.00	29.923 
15:00	57.6	57.6	57.6	94	55.9	0	2	270	0.00	29.920 
15:05	57.6	57.6	57.6	94	55.9	0	2	270	0.00	29.920 
15:10	57.5	57.5	57.5	94	55.8	0	2	270	0.00	29.920 
15:15	57.6	57.6	57.6	94	55.9	0	2	270	0.00	29.923 
15:20	57.6	57.6	57.6	94	55.9	0	2	270	0.00	29.923 
15:25	57.6	57.6	57.6	93	55.6	0	1	270	0.00	29.923 
15:30	57.8	57.8	57.8	93	55.8	0	1	270	0.00	29.925 
15:35	57.8	57.8	57.8	93	55.8	0	1	270	0.00	29.925 
15:40	57.8	57.8	57.8	93	55.8	0	1	270	0.00	29.925 
15:45	58.0	58.0	58.0	93	56.0	0	4	270	0.00	29.928 
15:50	58.0	58.0	58.0	92	55.7	0	3	270	0.00	29.928 
15:55	58.0	58.0	58.0	92	55.7	0	1	270	0.01	29.928 
16:00	58.0	58.0	58.0	92	55.7	0	2	270	0.00	29.929 
16:05	58.1	58.1	58.1	92	55.8	0	1	270	0.00	29.929 
16:10	58.3	58.3	58.3	92	56.0	0	2	270	0.01	29.929 
16:15	58.3	58.3	58.3	92	56.0	1	4	270	0.00	29.930 
16:20	58.3	58.3	58.3	92	56.0	0	1	270	0.00	29.930 
16:25	58.3	58.3	58.3	92	56.0	0	2	270	0.00	29.930 
16:30	58.4	58.4	58.4	93	56.4	0	0	---	0.00	29.930 
16:35	58.4	58.4	58.4	93	56.4	0	2	270	0.00	29.930 
16:40	58.7	58.7	58.7	93	56.7	0	1	270	0.00	29.930 
16:45	58.7	58.7	58.7	93	56.7	0	1	270	0.01	29.929 
16:50	58.6	58.6	58.6	92	56.3	0	1	270	0.08	29.929 
16:55	58.4	58.4	58.4	93	56.4	0	1	270	0.06	29.929 
17:00	58.1	58.1	58.1	93	56.1	0	1	270	0.01	29.931 
17:05	58.3	58.3	58.3	93	56.3	0	1	270	0.00	29.931 
17:10	58.4	58.4	58.4	93	56.4	1	3	270	0.00	29.931 
17:15	58.6	58.6	58.6	93	56.6	0	2	270	0.00	29.930 
17:20	58.7	58.7	58.7	93	56.7	0	1	270	0.00	29.930 
17:25	58.7	58.7	58.7	93	56.7	0	2	270	0.00	29.930 
17:30	59.3	59.3	59.3	94	57.6	0	1	270	0.00	29.930 
17:35	59.9	59.9	59.9	94	58.2	0	2	270	0.00	29.930 
17:40	60.2	60.2	60.2	93	58.2	0	4	270	0.00	29.930 
17:45	60.2	60.2	60.2	92	57.9	0	2	270	0.00	29.930 
17:50	59.9	59.9	59.9	92	57.6	1	4	270	0.00	29.930 
17:55	59.8	59.8	59.8	90	56.9	1	4	270	0.00	29.930 
18:00	60.1	60.1	60.1	90	57.2	0	3	270	0.00	29.931 
18:05	60.2	60.2	60.2	88	56.6	1	4	315	0.00	29.931 
18:10	60.4	60.4	60.4	86	56.2	1	4	315	0.00	29.931 
18:15	60.5	60.5	60.5	84	55.6	0	4	315	0.00	29.933 
18:20	60.7	60.7	60.7	83	55.5	1	3	315	0.00	29.933 
18:25	60.9	60.9	60.9	82	55.4	0	2	315	0.00	29.933 
18:30	61.2	61.2	61.2	81	55.3	0	3	315	0.00	29.934 
18:35	61.0	61.0	61.0	79	54.4	1	4	270	0.00	29.934 
18:40	60.7	60.7	60.7	79	54.1	0	2	270	0.00	29.934 
18:45	60.5	60.5	60.5	79	54.0	0	2	270	0.00	29.942 
18:50	60.4	60.4	60.4	79	53.9	0	2	270	0.00	29.942 
18:55	60.2	60.2	60.2	79	53.7	1	4	270	0.00	29.942 
19:00	60.2	60.2	60.2	79	53.7	0	2	0	0.00	29.944 
19:05	60.2	60.2	60.2	79	53.7	1	3	0	0.00	29.944 
19:10	60.1	60.1	60.1	80	53.9	1	4	315	0.00	29.944 
19:15	59.9	59.9	59.9	80	53.7	1	3	315	0.00	29.945 
19:20	59.6	59.6	59.6	80	53.4	1	6	292	0.00	29.945 
19:25	59.5	59.5	59.5	80	53.3	0	3	315	0.00	29.945 
19:30	59.5	59.5	59.5	80	53.3	0	2	315	0.00	29.948 
19:35	59.3	59.3	59.3	80	53.1	0	2	315	0.00	29.948 
19:40	59.3	59.3	59.3	81	53.5	0	2	315	0.00	29.948 
19:45	59.3	59.3	59.3	81	53.5	0	1	315	0.00	29.952 
19:50	59.3	59.3	59.3	81	53.5	0	2	315	0.00	29.952 
19:55	59.3	59.3	59.3	81	53.5	0	1	315	0.00	29.952 
20:00	59.2	59.2	59.2	82	53.7	0	1	315	0.00	29.956 
20:05	59.2	59.2	59.2	82	53.7	0	1	315	0.00	29.956 
20:10	59.2	59.2	59.2	82	53.7	0	1	315	0.00	29.956 
20:15	59.2	59.2	59.2	82	53.7	0	1	315	0.00	29.961 
20:20	59.2	59.2	59.2	83	54.0	0	0	---	0.00	29.961 
20:25	59.2	59.2	59.2	83	54.0	0	1	315	0.00	29.961 
20:30	59.2	59.2	59.2	83	54.0	0	0	---	0.00	29.963 
20:35	59.0	59.0	59.0	84	54.2	0	0	---	0.00	29.963 
20:40	59.0	59.0	59.0	84	54.2	0	0	---	0.00	29.963 
20:45	59.0	59.0	59.0	84	54.2	0	1	315	0.00	29.972 
20:50	59.0	59.0	59.0	84	54.2	0	2	315	0.00	29.972 
20:55	59.0	59.0	59.0	83	53.8	0	0	---	0.00	29.972 
21:00	58.9	58.9	58.9	83	53.7	0	1	315	0.00	29.979 
21:05	58.9	58.9	58.9	82	53.4	0	1	315	0.00	29.979 
21:10	58.6	58.6	58.6	81	52.8	1	4	315	0.00	29.979 
21:15	58.6	58.6	58.6	80	52.4	1	4	22	0.00	29.987 
21:20	58.4	58.4	58.4	80	52.3	1	3	90	0.00	29.987 
21:25	58.3	58.3	58.3	80	52.2	1	7	338	0.00	29.987 
21:30	58.1	58.1	58.1	79	51.6	1	3	338	0.00	29.996 
21:35	58.0	58.0	58.0	79	51.5	1	3	45	0.00	29.996 
21:40	57.8	57.8	57.8	79	51.3	1	3	45	0.00	29.996 
21:45	57.6	57.6	57.6	79	51.1	0	4	315	0.00	30.008 
21:50	57.5	57.5	57.5	79	51.0	1	3	315	0.00	30.008 
21:55	57.3	57.3	57.3	79	50.8	1	3	45	0.00	30.008 
22:00	57.3	57.3	57.3	79	50.8	1	4	45	0.00	30.015 
22:05	57.0	57.0	57.0	79	50.5	0	3	45	0.00	30.015 
22:10	56.7	56.7	56.7	78	49.9	1	7	315	0.00	30.015 
22:15	56.6	56.6	56.6	78	49.8	1	9	112	0.00	30.026 
22:20	56.5	56.5	56.5	78	49.7	1	4	45	0.00	30.026 
22:25	56.3	56.3	56.3	78	49.5	1	5	0	0.00	30.026 
22:30	56.2	56.2	56.2	79	49.8	1	3	90	0.00	30.031 
22:35	56.0	56.0	56.0	79	49.6	0	2	90	0.00	30.031 
22:40	55.9	55.9	55.9	79	49.5	1	9	45	0.00	30.031 
22:45	55.7	55.7	55.7	79	49.3	1	5	68	0.00	30.038 
22:50	55.6	55.6	55.6	78	48.8	1	4	45	0.00	30.038 
22:55	55.3	55.3	55.3	78	48.6	1	4	338	0.00	30.038 
23:00	55.1	55.1	55.1	79	48.7	1	4	45	0.00	30.043 
23:05	54.8	54.8	54.8	79	48.4	1	6	68	0.00	30.043 
23:10	54.7	54.7	54.7	78	48.0	1	5	68	0.00	30.043 
23:15	54.5	54.5	54.5	79	48.1	0	3	158	0.00	30.044 
23:20	54.4	54.4	54.4	79	48.0	1	4	68	0.00	30.044 
23:25	54.2	54.2	54.2	79	47.8	0	2	0	0.00	30.044 
23:30	54.2	54.2	54.2	79	47.8	0	3	0	0.00	30.045 
23:35	54.1	54.1	54.1	79	47.7	1	5	90	0.00	30.045 
23:40	53.9	53.9	53.9	77	46.9	1	4	45	0.00	30.045 
23:45	53.8	53.8	53.8	77	46.8	1	6	68	0.00	30.047 
23:50	53.6	53.6	53.6	77	46.6	1	3	0	0.00	30.047 
23:55	53.6	53.6	53.6	77	46.6	1	4	45	0.00	30.047 

CoCoRaHS
IN-AL-39
A2 Web Hosting
Creative Commons License
GoDaddy
search engine by freefind advanced

loaded 2018-11-15 04:01:47 • last modified 2010-11-18 10:43:29
Privacy PolicyDisclaimer
• wx.awcolley.com is powered by PmWiki v.2002016 •
• all content (unless otherwise noted) © 2018 A W Colley